Biotrans — JWPN — position and weather

sailwx.info

Track history (hours):
 
Tides and Currents Weather Stations Pressure Air Temp Water Temp Dewpoint Dewpoint Depression Visibility Wind Speed Wind Dir Waves Ship Positions

Biotrans

Last reported at 2016-Dec-05 16:14 UTC. Time now 2016-Dec-11 12:05 UTC.
Position N 69°20' E 018°02'.

Length 55 m; draft 5.5 m.

Type: Cargo ship. MMSI: 259260000.

Date/timePositionNaut miles runAvg speedWind from/ knotsBaromVisibWave heightAir tempDewpointWater temp
2016-Dec-05 16:14N 69°20' E 018°02'7 9.8
2016-Dec-05 15:33N 69°14' E 017°57'8 7.8
2016-Dec-05 14:33N 69°08' E 017°42'1410.3
2016-Dec-05 13:09N 68°59' E 017°10'20 4.4
2016-Dec-05 08:33N 68°42' E 016°40'77 8.4
2016-Dec-04 23:27N 67°43' E 014°31'10 8.5
2016-Dec-04 22:17N 67°33' E 014°30'6 8.8
2016-Dec-04 21:33N 67°26' E 014°28'9 9.0
2016-Dec-04 20:33N 67°18' E 014°17'9 9.3
2016-Dec-04 19:33N 67°11' E 014°04'10 9.1
2016-Dec-04 18:30N 67°03' E 013°50'9 9.0
2016-Dec-04 17:31N 66°58' E 013°31'8 8.1
2016-Dec-04 16:32N 66°51' E 013°20'21 8.9
2016-Dec-04 14:10N 66°32' E 012°57'7 9.4
2016-Dec-04 13:23N 66°25' E 012°58'2 2.0
2016-Dec-04 12:33N 66°23' E 012°58'11 9.3
2016-Dec-04 11:22N 66°12' E 012°51'3 3.6
2016-Dec-04 10:34N 66°11' E 012°46'3 2.6
2016-Dec-04 09:30N 66°08' E 012°46'55 9.1
2016-Dec-04 03:25N 65°16' E 011°57'10 9.1
2016-Dec-04 02:18N 65°07' E 011°48'7 9.2
2016-Dec-04 01:33N 65°01' E 011°40'9 9.1
2016-Dec-04 00:33N 64°55' E 011°24'10 9.6
2016-Dec-03 23:33N 64°48' E 011°07'62 8.7
2016-Dec-03 16:30N 63°55' E 009°54'4 0.7
2016-Dec-03 10:33N 63°53' E 009°47'8 8.5
2016-Dec-03 09:33N 63°47' E 009°33'6 5.5
2016-Dec-03 08:33N 63°46' E 009°46'0 0.0
2016-Dec-03 07:33N 63°46' E 009°46'0 0.0
2016-Dec-03 06:33N 63°46' E 009°46'0 0.0
2016-Dec-03 05:33N 63°46' E 009°46'1 0.9
2016-Dec-03 04:34N 63°46' E 009°44'1 0.6
2016-Dec-03 03:33N 63°46' E 009°45'0 0.4
2016-Dec-03 02:33N 63°46' E 009°46'0 0.0
2016-Dec-03 01:33N 63°46' E 009°46'0 0.0
2016-Dec-03 00:33N 63°46' E 009°46'0 0.0
2016-Dec-02 23:33N 63°46' E 009°46'1 1.4
2016-Dec-02 22:33N 63°45' E 009°43'0 0.1
2016-Dec-02 21:33N 63°46' E 009°42'4 3.7
2016-Dec-02 20:33N 63°45' E 009°34'7 7.3
2016-Dec-02 19:33N 63°52' E 009°41'11 8.2
2016-Dec-02 18:12N 64°02' E 009°48'2436.3
2016-Dec-02 17:33N 64°20' E 010°26'5 5.4
2016-Dec-02 16:33N 64°25' E 010°27'6 5.2
2016-Dec-02 15:22N 64°30' E 010°34'5 5.9
2016-Dec-02 14:33N 64°35' E 010°37'6 5.7
2016-Dec-02 13:33N 64°39' E 010°45'6 5.8
2016-Dec-02 12:33N 64°43' E 010°56'6 5.8
2016-Dec-02 11:33N 64°47' E 011°05'7 7.3
2016-Dec-02 10:33N 64°53' E 011°17'9 8.8
2016-Dec-02 09:33N 64°58' E 011°33'9 8.8
2016-Dec-02 08:33N 65°05' E 011°46'9 9.3
2016-Dec-02 07:33N 65°14' E 011°54'4441.7
2016-Dec-02 06:30N 65°56' E 012°23'6 6.8
2016-Dec-02 05:33N 66°01' E 012°32'7 6.6
2016-Dec-02 04:32N 66°06' E 012°42'8 6.3
2016-Dec-02 03:20N 66°13' E 012°52'7 6.2
2016-Dec-02 02:15N 66°19' E 012°54'2 2.3
2016-Dec-02 01:33N 66°21' E 012°53'4 4.0
2016-Dec-02 00:33N 66°25' E 012°58'5 4.4
2016-Dec-01 23:32N 66°21' E 012°52'5 4.7
2016-Dec-01 22:33N 66°25' E 012°58'25 8.4
2016-Dec-01 19:32N 66°49' E 013°16'6 6.2
2016-Dec-01 18:33N 66°54' E 013°25'7 7.0
2016-Dec-01 17:33N 66°59' E 013°36'9 9.4
2016-Dec-01 16:33N 67°05' E 013°55'9 9.5
2016-Dec-01 15:33N 67°13' E 014°08'10 9.5
2016-Dec-01 14:33N 67°21' E 014°22'37393.2
2016-Dec-01 10:33N 71°06' E 028°20'6 6.1
2016-Dec-01 09:33N 71°03' E 028°35'9 8.5
2016-Dec-01 08:32N 70°57' E 028°56'8 7.7
2016-Dec-01 07:32N 70°53' E 029°15'7 7.0
2016-Dec-01 06:32N 70°49' E 029°32'7 6.7
2016-Dec-01 05:33N 70°45' E 029°48'6 6.2
2016-Dec-01 04:32N 70°38' E 029°46'2 1.7
2016-Dec-01 03:33N 70°37' E 029°42'0 0.0
2016-Dec-01 02:33N 70°37' E 029°42'0 0.0
2016-Dec-01 01:33N 70°37' E 029°42'0 0.0
2016-Dec-01 00:33N 70°37' E 029°42'0 0.0
2016-Nov-30 23:33N 70°37' E 029°42'2 1.6
2016-Nov-30 22:33N 70°38' E 029°46'0 0.3
2016-Nov-30 21:33N 70°38' E 029°45'1 1.2
2016-Nov-30 20:33N 70°39' E 029°47'4 4.3
2016-Nov-30 19:33N 70°43' E 029°50'5 5.2
2016-Nov-30 18:33N 70°47' E 029°38'6 5.8
2016-Nov-30 17:33N 70°51' E 029°25'5 4.9
2016-Nov-30 16:33N 70°54' E 029°14'5 4.9
2016-Nov-30 15:33N 70°57' E 029°03'5 5.0
2016-Nov-30 14:33N 70°60' E 028°50'6 6.0
2016-Nov-30 13:32N 71°03' E 028°34'6 5.8
2016-Nov-30 12:33N 71°06' E 028°20'4 4.3
2016-Nov-30 11:33N 71°09' E 028°09'6 5.7
2016-Nov-30 10:33N 71°10' E 027°51'6 6.4
2016-Nov-30 09:33N 71°10' E 027°31'6 6.4
2016-Nov-30 08:33N 71°09' E 027°11'6 6.4
2016-Nov-30 07:32N 71°05' E 026°55'6 6.1
2016-Nov-30 06:34N 71°03' E 026°38'6 5.9
2016-Nov-30 05:33N 71°01' E 026°22'5 5.4
2016-Nov-30 04:33N 70°58' E 026°07'6 5.8
2016-Nov-30 03:33N 70°56' E 025°50'202202.0
2016-Nov-30 02:33N 69°07' E 017°34'9 9.0
2016-Nov-30 01:33N 69°10' E 017°57'7 7.4
2016-Nov-30 00:33N 69°18' E 017°58'183180.2
2016-Nov-29 23:32N 70°56' E 025°32'7 6.6
2016-Nov-29 22:33N 70°60' E 025°17'6 6.0
2016-Nov-29 21:33N 70°60' E 024°59'6 5.7
2016-Nov-29 20:33N 71°01' E 024°42'6 5.5
2016-Nov-29 19:33N 70°60' E 024°25'5 5.4
2016-Nov-29 18:33N 70°56' E 024°15'5 5.3
2016-Nov-29 17:32N 70°51' E 024°08'6 5.5
2016-Nov-29 16:33N 70°46' E 023°59'5 5.0
2016-Nov-29 15:33N 70°47' E 023°44'5 5.0
2016-Nov-29 14:33N 70°43' E 023°33'5 5.1
2016-Nov-29 13:34N 70°39' E 023°23'5 4.8
2016-Nov-29 12:33N 70°35' E 023°18'2 1.7
2016-Nov-29 11:33N 70°34' E 023°21'0 0.5
2016-Nov-29 10:33N 70°34' E 023°23'1 0.6
2016-Nov-29 09:33N 70°34' E 023°23'0 0.2
2016-Nov-29 08:33N 70°34' E 023°23'0 0.1
2016-Nov-29 07:33N 70°34' E 023°24'0 0.0
2016-Nov-29 06:32N 70°34' E 023°24'0 0.0
2016-Nov-29 05:34N 70°34' E 023°24'0 0.2
2016-Nov-29 04:33N 70°34' E 023°24'2 2.4
2016-Nov-29 03:33N 70°36' E 023°18'5 5.4
2016-Nov-29 02:33N 70°38' E 023°32'3 2.5
2016-Nov-29 01:32N 70°38' E 023°40'0 0.0
2016-Nov-29 00:32N 70°38' E 023°40'0 0.0
2016-Nov-28 23:32N 70°38' E 023°40'0 0.0
2016-Nov-28 22:33N 70°38' E 023°40'0 0.0
2016-Nov-28 21:33N 70°38' E 023°40'0 0.0
2016-Nov-28 20:33N 70°38' E 023°40'0 0.0
2016-Nov-28 19:33N 70°38' E 023°40'0 0.0
2016-Nov-28 18:33N 70°38' E 023°40'0 0.0
2016-Nov-28 17:33N 70°38' E 023°40'0 0.0
2016-Nov-28 16:33N 70°38' E 023°40'0 0.0
2016-Nov-28 15:33N 70°38' E 023°40'0 0.0
2016-Nov-28 14:33N 70°38' E 023°40'0 0.0
2016-Nov-28 13:32N 70°38' E 023°40'0 0.0
2016-Nov-28 12:33N 70°38' E 023°40'0 0.0
2016-Nov-28 11:33N 70°38' E 023°40'0 0.0
2016-Nov-28 10:32N 70°38' E 023°40'0 0.0
2016-Nov-28 09:33N 70°38' E 023°40'0 0.0
2016-Nov-28 08:33N 70°38' E 023°40'0 0.0
2016-Nov-28 07:33N 70°38' E 023°40'0 0.0
2016-Nov-28 06:33N 70°38' E 023°40'0 0.1
2016-Nov-28 05:33N 70°38' E 023°40'6 5.9
2016-Nov-28 04:33N 70°38' E 023°22'4 3.6
2016-Nov-28 03:33N 70°34' E 023°24'0 0.0
2016-Nov-28 02:33N 70°34' E 023°24'0 0.0
2016-Nov-28 01:33N 70°34' E 023°24'0 0.0
2016-Nov-28 00:33N 70°34' E 023°24'0 0.0
2016-Nov-27 23:33N 70°34' E 023°24'0 0.0
2016-Nov-27 22:32N 70°34' E 023°24'0 0.0
2016-Nov-27 21:33N 70°34' E 023°24'1 0.5
2016-Nov-27 20:33N 70°34' E 023°22'2 2.0
2016-Nov-27 19:33N 70°34' E 023°17'1 0.6
2016-Nov-27 18:33N 70°35' E 023°17'1 1.3
2016-Nov-27 17:33N 70°36' E 023°15'1 0.7
2016-Nov-27 16:33N 70°36' E 023°13'0 0.4
2016-Nov-27 15:33N 70°35' E 023°13'1 0.9
2016-Nov-27 14:33N 70°35' E 023°11'4 3.8
2016-Nov-27 13:33N 70°39' E 023°14'0 0.2
2016-Nov-27 12:34N 70°39' E 023°14'1 1.3
2016-Nov-27 11:33N 70°37' E 023°12'1 0.9
2016-Nov-27 10:34N 70°36' E 023°11'0 0.4
2016-Nov-27 09:33N 70°36' E 023°11'2 2.3
2016-Nov-27 08:33N 70°38' E 023°15'0 0.5
2016-Nov-27 07:33N 70°38' E 023°14'2 1.7
2016-Nov-27 06:33N 70°36' E 023°13'4 3.4
2016-Nov-27 05:32N 70°39' E 023°15'0 0.3
2016-Nov-27 04:32N 70°39' E 023°15'1 1.2
2016-Nov-27 03:33N 70°38' E 023°16'1 1.1
2016-Nov-27 02:32N 70°37' E 023°16'0 0.3
2016-Nov-27 01:32N 70°37' E 023°16'1 1.0
2016-Nov-27 00:33N 70°38' E 023°16'1 1.2
2016-Nov-26 23:33N 70°36' E 023°16'2 1.8
2016-Nov-26 22:33N 70°35' E 023°14'3 2.8
2016-Nov-26 21:34N 70°32' E 023°14'0 0.0
2016-Nov-26 20:33N 70°32' E 023°14'4 4.1
2016-Nov-26 19:33N 70°34' E 023°24'0 0.0
2016-Nov-26 18:33N 70°34' E 023°24'0 0.1
2016-Nov-26 17:33N 70°34' E 023°24'0 0.0
2016-Nov-26 16:33N 70°34' E 023°24'0 0.0
2016-Nov-26 15:33N 70°34' E 023°24'0 0.0
2016-Nov-26 14:32N 70°34' E 023°24'0 0.0
2016-Nov-26 13:33N 70°34' E 023°24'0 0.0
2016-Nov-26 12:33N 70°34' E 023°24'0 0.0
2016-Nov-26 11:33N 70°34' E 023°24'0 0.3
2016-Nov-26 10:33N 70°34' E 023°23'0 0.4
2016-Nov-26 09:33N 70°34' E 023°24'1 0.7
2016-Nov-26 08:33N 70°34' E 023°23'2 2.1
2016-Nov-26 07:33N 70°34' E 023°16'5 4.8
2016-Nov-26 06:32N 70°32' E 023°02'7 7.0
2016-Nov-26 05:32N 70°29' E 022°44'7 6.9
2016-Nov-26 04:33N 70°28' E 022°24'21 7.1
2016-Nov-26 01:32N 70°18' E 021°26'52 7.3
2016-Nov-25 18:23N 69°48' E 019°22'7 7.6
2016-Nov-25 17:29N 69°44' E 019°05'6 6.2
2016-Nov-25 16:32N 69°39' E 018°58'  
Track history (hours):
 
Tides and Currents Weather Stations Pressure Air Temp Water Temp Dewpoint Dewpoint Depression Visibility Wind Speed Wind Dir Waves Ship Positions

Biotrans

Last reported at 2016-Dec-05 16:14 UTC. Time now 2016-Dec-11 12:05 UTC.
Position N 69°20' E 018°02'.

Length 55 m; draft 5.5 m.

Type: Cargo ship. MMSI: 259260000.

Date/timePositionNaut miles runAvg speedWind from/ knotsBaromVisibWave heightAir tempDewpointWater temp
2016-Dec-05 16:14N 69°20' E 018°02'7 9.8
2016-Dec-05 15:33N 69°14' E 017°57'8 7.8
2016-Dec-05 14:33N 69°08' E 017°42'1410.3
2016-Dec-05 13:09N 68°59' E 017°10'20 4.4
2016-Dec-05 08:33N 68°42' E 016°40'77 8.4
2016-Dec-04 23:27N 67°43' E 014°31'10 8.5
2016-Dec-04 22:17N 67°33' E 014°30'6 8.8
2016-Dec-04 21:33N 67°26' E 014°28'9 9.0
2016-Dec-04 20:33N 67°18' E 014°17'9 9.3
2016-Dec-04 19:33N 67°11' E 014°04'10 9.1
2016-Dec-04 18:30N 67°03' E 013°50'9 9.0
2016-Dec-04 17:31N 66°58' E 013°31'8 8.1
2016-Dec-04 16:32N 66°51' E 013°20'21 8.9
2016-Dec-04 14:10N 66°32' E 012°57'7 9.4
2016-Dec-04 13:23N 66°25' E 012°58'2 2.0
2016-Dec-04 12:33N 66°23' E 012°58'11 9.3
2016-Dec-04 11:22N 66°12' E 012°51'3 3.6
2016-Dec-04 10:34N 66°11' E 012°46'3 2.6
2016-Dec-04 09:30N 66°08' E 012°46'55 9.1
2016-Dec-04 03:25N 65°16' E 011°57'10 9.1
2016-Dec-04 02:18N 65°07' E 011°48'7 9.2
2016-Dec-04 01:33N 65°01' E 011°40'9 9.1
2016-Dec-04 00:33N 64°55' E 011°24'10 9.6
2016-Dec-03 23:33N 64°48' E 011°07'62 8.7
2016-Dec-03 16:30N 63°55' E 009°54'4 0.7
2016-Dec-03 10:33N 63°53' E 009°47'8 8.5
2016-Dec-03 09:33N 63°47' E 009°33'6 5.5
2016-Dec-03 08:33N 63°46' E 009°46'0 0.0
2016-Dec-03 07:33N 63°46' E 009°46'0 0.0
2016-Dec-03 06:33N 63°46' E 009°46'0 0.0
2016-Dec-03 05:33N 63°46' E 009°46'1 0.9
2016-Dec-03 04:34N 63°46' E 009°44'1 0.6
2016-Dec-03 03:33N 63°46' E 009°45'0 0.4
2016-Dec-03 02:33N 63°46' E 009°46'0 0.0
2016-Dec-03 01:33N 63°46' E 009°46'0 0.0
2016-Dec-03 00:33N 63°46' E 009°46'0 0.0
2016-Dec-02 23:33N 63°46' E 009°46'1 1.4
2016-Dec-02 22:33N 63°45' E 009°43'0 0.1
2016-Dec-02 21:33N 63°46' E 009°42'4 3.7
2016-Dec-02 20:33N 63°45' E 009°34'7 7.3
2016-Dec-02 19:33N 63°52' E 009°41'11 8.2
2016-Dec-02 18:12N 64°02' E 009°48'2436.3
2016-Dec-02 17:33N 64°20' E 010°26'5 5.4
2016-Dec-02 16:33N 64°25' E 010°27'6 5.2
2016-Dec-02 15:22N 64°30' E 010°34'5 5.9
2016-Dec-02 14:33N 64°35' E 010°37'6 5.7
2016-Dec-02 13:33N 64°39' E 010°45'6 5.8
2016-Dec-02 12:33N 64°43' E 010°56'6 5.8
2016-Dec-02 11:33N 64°47' E 011°05'7 7.3
2016-Dec-02 10:33N 64°53' E 011°17'9 8.8
2016-Dec-02 09:33N 64°58' E 011°33'9 8.8
2016-Dec-02 08:33N 65°05' E 011°46'9 9.3
2016-Dec-02 07:33N 65°14' E 011°54'4441.7
2016-Dec-02 06:30N 65°56' E 012°23'6 6.8
2016-Dec-02 05:33N 66°01' E 012°32'7 6.6
2016-Dec-02 04:32N 66°06' E 012°42'8 6.3
2016-Dec-02 03:20N 66°13' E 012°52'7 6.2
2016-Dec-02 02:15N 66°19' E 012°54'2 2.3
2016-Dec-02 01:33N 66°21' E 012°53'4 4.0
2016-Dec-02 00:33N 66°25' E 012°58'5 4.4
2016-Dec-01 23:32N 66°21' E 012°52'5 4.7
2016-Dec-01 22:33N 66°25' E 012°58'25 8.4
2016-Dec-01 19:32N 66°49' E 013°16'6 6.2
2016-Dec-01 18:33N 66°54' E 013°25'7 7.0
2016-Dec-01 17:33N 66°59' E 013°36'9 9.4
2016-Dec-01 16:33N 67°05' E 013°55'9 9.5
2016-Dec-01 15:33N 67°13' E 014°08'10 9.5
2016-Dec-01 14:33N 67°21' E 014°22'37393.2
2016-Dec-01 10:33N 71°06' E 028°20'6 6.1
2016-Dec-01 09:33N 71°03' E 028°35'9 8.5
2016-Dec-01 08:32N 70°57' E 028°56'8 7.7
2016-Dec-01 07:32N 70°53' E 029°15'7 7.0
2016-Dec-01 06:32N 70°49' E 029°32'7 6.7
2016-Dec-01 05:33N 70°45' E 029°48'6 6.2
2016-Dec-01 04:32N 70°38' E 029°46'2 1.7
2016-Dec-01 03:33N 70°37' E 029°42'0 0.0
2016-Dec-01 02:33N 70°37' E 029°42'0 0.0
2016-Dec-01 01:33N 70°37' E 029°42'0 0.0
2016-Dec-01 00:33N 70°37' E 029°42'0 0.0
2016-Nov-30 23:33N 70°37' E 029°42'2 1.6
2016-Nov-30 22:33N 70°38' E 029°46'0 0.3
2016-Nov-30 21:33N 70°38' E 029°45'1 1.2
2016-Nov-30 20:33N 70°39' E 029°47'4 4.3
2016-Nov-30 19:33N 70°43' E 029°50'5 5.2
2016-Nov-30 18:33N 70°47' E 029°38'6 5.8
2016-Nov-30 17:33N 70°51' E 029°25'5 4.9
2016-Nov-30 16:33N 70°54' E 029°14'5 4.9
2016-Nov-30 15:33N 70°57' E 029°03'5 5.0
2016-Nov-30 14:33N 70°60' E 028°50'6 6.0
2016-Nov-30 13:32N 71°03' E 028°34'6 5.8
2016-Nov-30 12:33N 71°06' E 028°20'4 4.3
2016-Nov-30 11:33N 71°09' E 028°09'6 5.7
2016-Nov-30 10:33N 71°10' E 027°51'6 6.4
2016-Nov-30 09:33N 71°10' E 027°31'6 6.4
2016-Nov-30 08:33N 71°09' E 027°11'6 6.4
2016-Nov-30 07:32N 71°05' E 026°55'6 6.1
2016-Nov-30 06:34N 71°03' E 026°38'6 5.9
2016-Nov-30 05:33N 71°01' E 026°22'5 5.4
2016-Nov-30 04:33N 70°58' E 026°07'6 5.8
2016-Nov-30 03:33N 70°56' E 025°50'202202.0
2016-Nov-30 02:33N 69°07' E 017°34'9 9.0
2016-Nov-30 01:33N 69°10' E 017°57'7 7.4
2016-Nov-30 00:33N 69°18' E 017°58'183180.2
2016-Nov-29 23:32N 70°56' E 025°32'7 6.6
2016-Nov-29 22:33N 70°60' E 025°17'6 6.0
2016-Nov-29 21:33N 70°60' E 024°59'6 5.7
2016-Nov-29 20:33N 71°01' E 024°42'6 5.5
2016-Nov-29 19:33N 70°60' E 024°25'5 5.4
2016-Nov-29 18:33N 70°56' E 024°15'5 5.3
2016-Nov-29 17:32N 70°51' E 024°08'6 5.5
2016-Nov-29 16:33N 70°46' E 023°59'5 5.0
2016-Nov-29 15:33N 70°47' E 023°44'5 5.0
2016-Nov-29 14:33N 70°43' E 023°33'5 5.1
2016-Nov-29 13:34N 70°39' E 023°23'5 4.8
2016-Nov-29 12:33N 70°35' E 023°18'2 1.7
2016-Nov-29 11:33N 70°34' E 023°21'0 0.5
2016-Nov-29 10:33N 70°34' E 023°23'1 0.6
2016-Nov-29 09:33N 70°34' E 023°23'0 0.2
2016-Nov-29 08:33N 70°34' E 023°23'0 0.1
2016-Nov-29 07:33N 70°34' E 023°24'0 0.0
2016-Nov-29 06:32N 70°34' E 023°24'0 0.0
2016-Nov-29 05:34N 70°34' E 023°24'0 0.2
2016-Nov-29 04:33N 70°34' E 023°24'2 2.4
2016-Nov-29 03:33N 70°36' E 023°18'5 5.4
2016-Nov-29 02:33N 70°38' E 023°32'3 2.5
2016-Nov-29 01:32N 70°38' E 023°40'0 0.0
2016-Nov-29 00:32N 70°38' E 023°40'0 0.0
2016-Nov-28 23:32N 70°38' E 023°40'0 0.0
2016-Nov-28 22:33N 70°38' E 023°40'0 0.0
2016-Nov-28 21:33N 70°38' E 023°40'0 0.0
2016-Nov-28 20:33N 70°38' E 023°40'0 0.0
2016-Nov-28 19:33N 70°38' E 023°40'0 0.0
2016-Nov-28 18:33N 70°38' E 023°40'0 0.0
2016-Nov-28 17:33N 70°38' E 023°40'0 0.0
2016-Nov-28 16:33N 70°38' E 023°40'0 0.0
2016-Nov-28 15:33N 70°38' E 023°40'0 0.0
2016-Nov-28 14:33N 70°38' E 023°40'0 0.0
2016-Nov-28 13:32N 70°38' E 023°40'0 0.0
2016-Nov-28 12:33N 70°38' E 023°40'0 0.0
2016-Nov-28 11:33N 70°38' E 023°40'0 0.0
2016-Nov-28 10:32N 70°38' E 023°40'0 0.0
2016-Nov-28 09:33N 70°38' E 023°40'0 0.0
2016-Nov-28 08:33N 70°38' E 023°40'0 0.0
2016-Nov-28 07:33N 70°38' E 023°40'0 0.0
2016-Nov-28 06:33N 70°38' E 023°40'0 0.1
2016-Nov-28 05:33N 70°38' E 023°40'6 5.9
2016-Nov-28 04:33N 70°38' E 023°22'4 3.6
2016-Nov-28 03:33N 70°34' E 023°24'0 0.0
2016-Nov-28 02:33N 70°34' E 023°24'0 0.0
2016-Nov-28 01:33N 70°34' E 023°24'0 0.0
2016-Nov-28 00:33N 70°34' E 023°24'0 0.0
2016-Nov-27 23:33N 70°34' E 023°24'0 0.0
2016-Nov-27 22:32N 70°34' E 023°24'0 0.0
2016-Nov-27 21:33N 70°34' E 023°24'1 0.5
2016-Nov-27 20:33N 70°34' E 023°22'2 2.0
2016-Nov-27 19:33N 70°34' E 023°17'1 0.6
2016-Nov-27 18:33N 70°35' E 023°17'1 1.3
2016-Nov-27 17:33N 70°36' E 023°15'1 0.7
2016-Nov-27 16:33N 70°36' E 023°13'0 0.4
2016-Nov-27 15:33N 70°35' E 023°13'1 0.9
2016-Nov-27 14:33N 70°35' E 023°11'4 3.8
2016-Nov-27 13:33N 70°39' E 023°14'0 0.2
2016-Nov-27 12:34N 70°39' E 023°14'1 1.3
2016-Nov-27 11:33N 70°37' E 023°12'1 0.9
2016-Nov-27 10:34N 70°36' E 023°11'0 0.4
2016-Nov-27 09:33N 70°36' E 023°11'2 2.3
2016-Nov-27 08:33N 70°38' E 023°15'0 0.5
2016-Nov-27 07:33N 70°38' E 023°14'2 1.7
2016-Nov-27 06:33N 70°36' E 023°13'4 3.4
2016-Nov-27 05:32N 70°39' E 023°15'0 0.3
2016-Nov-27 04:32N 70°39' E 023°15'1 1.2
2016-Nov-27 03:33N 70°38' E 023°16'1 1.1
2016-Nov-27 02:32N 70°37' E 023°16'0 0.3
2016-Nov-27 01:32N 70°37' E 023°16'1 1.0
2016-Nov-27 00:33N 70°38' E 023°16'1 1.2
2016-Nov-26 23:33N 70°36' E 023°16'2 1.8
2016-Nov-26 22:33N 70°35' E 023°14'3 2.8
2016-Nov-26 21:34N 70°32' E 023°14'0 0.0
2016-Nov-26 20:33N 70°32' E 023°14'4 4.1
2016-Nov-26 19:33N 70°34' E 023°24'0 0.0
2016-Nov-26 18:33N 70°34' E 023°24'0 0.1
2016-Nov-26 17:33N 70°34' E 023°24'0 0.0
2016-Nov-26 16:33N 70°34' E 023°24'0 0.0
2016-Nov-26 15:33N 70°34' E 023°24'0 0.0
2016-Nov-26 14:32N 70°34' E 023°24'0 0.0
2016-Nov-26 13:33N 70°34' E 023°24'0 0.0
2016-Nov-26 12:33N 70°34' E 023°24'0 0.0
2016-Nov-26 11:33N 70°34' E 023°24'0 0.3
2016-Nov-26 10:33N 70°34' E 023°23'0 0.4
2016-Nov-26 09:33N 70°34' E 023°24'1 0.7
2016-Nov-26 08:33N 70°34' E 023°23'2 2.1
2016-Nov-26 07:33N 70°34' E 023°16'5 4.8
2016-Nov-26 06:32N 70°32' E 023°02'7 7.0
2016-Nov-26 05:32N 70°29' E 022°44'7 6.9
2016-Nov-26 04:33N 70°28' E 022°24'21 7.1
2016-Nov-26 01:32N 70°18' E 021°26'52 7.3
2016-Nov-25 18:23N 69°48' E 019°22'7 7.6
2016-Nov-25 17:29N 69°44' E 019°05'6 6.2
2016-Nov-25 16:32N 69°39' E 018°58'  

Dump ship's entire track history